sensor_id;sensor_type;location;lat;lon;timestamp;P1;durP1;ratioP1;P2;durP2;ratioP2
55684;SDS011;41883;49.544;8.646;2022-08-19T00:01:50;11.20;;;9.02;;
55684;SDS011;41883;49.544;8.646;2022-08-19T00:04:17;10.00;;;9.00;;
55684;SDS011;41883;49.544;8.646;2022-08-19T00:06:45;11.27;;;9.65;;
55684;SDS011;41883;49.544;8.646;2022-08-19T00:09:12;10.63;;;9.43;;
55684;SDS011;41883;49.544;8.646;2022-08-19T00:11:40;12.40;;;11.07;;
55684;SDS011;41883;49.544;8.646;2022-08-19T00:14:07;12.82;;;10.48;;
55684;SDS011;41883;49.544;8.646;2022-08-19T00:16:34;12.68;;;11.20;;
55684;SDS011;41883;49.544;8.646;2022-08-19T00:19:01;13.82;;;11.02;;
55684;SDS011;41883;49.544;8.646;2022-08-19T00:21:27;15.38;;;12.90;;
55684;SDS011;41883;49.544;8.646;2022-08-19T00:23:53;14.68;;;12.65;;
55684;SDS011;41883;49.544;8.646;2022-08-19T00:26:22;13.43;;;11.98;;
55684;SDS011;41883;49.544;8.646;2022-08-19T00:28:48;13.13;;;10.85;;
55684;SDS011;41883;49.544;8.646;2022-08-19T00:31:13;13.05;;;11.10;;
55684;SDS011;41883;49.544;8.646;2022-08-19T00:33:39;15.15;;;13.00;;
55684;SDS011;41883;49.544;8.646;2022-08-19T00:36:07;13.18;;;11.07;;
55684;SDS011;41883;49.544;8.646;2022-08-19T00:38:35;11.40;;;9.52;;
55684;SDS011;41883;49.544;8.646;2022-08-19T00:41:01;10.15;;;8.80;;
55684;SDS011;41883;49.544;8.646;2022-08-19T00:43:27;10.48;;;9.20;;
55684;SDS011;41883;49.544;8.646;2022-08-19T00:45:53;11.65;;;9.65;;
55684;SDS011;41883;49.544;8.646;2022-08-19T00:48:19;9.35;;;8.35;;
55684;SDS011;41883;49.544;8.646;2022-08-19T00:50:46;12.10;;;9.68;;
55684;SDS011;41883;49.544;8.646;2022-08-19T00:53:14;10.45;;;8.68;;
55684;SDS011;41883;49.544;8.646;2022-08-19T00:55:44;9.13;;;8.18;;
55684;SDS011;41883;49.544;8.646;2022-08-19T00:58:12;9.77;;;8.00;;
55684;SDS011;41883;49.544;8.646;2022-08-19T01:00:40;8.82;;;7.82;;
55684;SDS011;41883;49.544;8.646;2022-08-19T01:03:07;8.80;;;7.50;;
55684;SDS011;41883;49.544;8.646;2022-08-19T01:05:34;10.25;;;7.88;;
55684;SDS011;41883;49.544;8.646;2022-08-19T01:08:01;7.55;;;6.75;;
55684;SDS011;41883;49.544;8.646;2022-08-19T01:10:29;7.68;;;6.53;;
55684;SDS011;41883;49.544;8.646;2022-08-19T01:12:58;7.93;;;6.93;;
55684;SDS011;41883;49.544;8.646;2022-08-19T01:15:29;9.40;;;8.40;;
55684;SDS011;41883;49.544;8.646;2022-08-19T01:17:59;12.00;;;9.93;;
55684;SDS011;41883;49.544;8.646;2022-08-19T01:20:29;11.70;;;10.48;;
55684;SDS011;41883;49.544;8.646;2022-08-19T01:22:56;12.38;;;10.52;;
55684;SDS011;41883;49.544;8.646;2022-08-19T01:25:28;11.55;;;9.57;;
55684;SDS011;41883;49.544;8.646;2022-08-19T01:27:59;10.18;;;8.10;;
55684;SDS011;41883;49.544;8.646;2022-08-19T01:30:26;11.32;;;9.25;;
55684;SDS011;41883;49.544;8.646;2022-08-19T01:32:54;11.60;;;9.95;;
55684;SDS011;41883;49.544;8.646;2022-08-19T01:35:21;13.15;;;11.20;;
55684;SDS011;41883;49.544;8.646;2022-08-19T01:37:50;11.00;;;9.77;;
55684;SDS011;41883;49.544;8.646;2022-08-19T01:40:17;11.73;;;9.43;;
55684;SDS011;41883;49.544;8.646;2022-08-19T01:42:45;9.88;;;8.48;;
55684;SDS011;41883;49.544;8.646;2022-08-19T01:45:12;10.40;;;8.93;;
55684;SDS011;41883;49.544;8.646;2022-08-19T01:47:38;9.82;;;8.80;;
55684;SDS011;41883;49.544;8.646;2022-08-19T01:50:07;9.68;;;8.23;;
55684;SDS011;41883;49.544;8.646;2022-08-19T01:52:40;8.15;;;7.28;;
55684;SDS011;41883;49.544;8.646;2022-08-19T01:55:08;8.80;;;7.55;;
55684;SDS011;41883;49.544;8.646;2022-08-19T01:57:37;10.93;;;9.55;;
55684;SDS011;41883;49.544;8.646;2022-08-19T02:00:06;10.13;;;8.77;;
55684;SDS011;41883;49.544;8.646;2022-08-19T02:02:35;10.00;;;8.40;;
55684;SDS011;41883;49.544;8.646;2022-08-19T02:05:00;10.10;;;9.00;;
55684;SDS011;41883;49.544;8.646;2022-08-19T02:07:25;12.07;;;9.60;;
55684;SDS011;41883;49.544;8.646;2022-08-19T02:09:51;15.13;;;11.57;;
55684;SDS011;41883;49.544;8.646;2022-08-19T02:12:16;12.75;;;10.60;;
55684;SDS011;41883;49.544;8.646;2022-08-19T02:14:41;13.57;;;11.48;;
55684;SDS011;41883;49.544;8.646;2022-08-19T02:17:07;12.30;;;10.23;;
55684;SDS011;41883;49.544;8.646;2022-08-19T02:19:32;10.88;;;9.40;;
55684;SDS011;41883;49.544;8.646;2022-08-19T02:21:58;11.15;;;9.27;;
55684;SDS011;41883;49.544;8.646;2022-08-19T02:24:24;9.95;;;8.70;;
55684;SDS011;41883;49.544;8.646;2022-08-19T02:26:50;9.82;;;8.30;;
55684;SDS011;41883;49.544;8.646;2022-08-19T02:29:16;9.93;;;8.07;;
55684;SDS011;41883;49.544;8.646;2022-08-19T02:31:41;8.85;;;7.50;;
55684;SDS011;41883;49.544;8.646;2022-08-19T02:34:06;8.63;;;7.57;;
55684;SDS011;41883;49.544;8.646;2022-08-19T02:36:32;9.70;;;8.13;;
55684;SDS011;41883;49.544;8.646;2022-08-19T02:38:57;8.63;;;7.32;;
55684;SDS011;41883;49.544;8.646;2022-08-19T02:41:24;8.82;;;7.30;;
55684;SDS011;41883;49.544;8.646;2022-08-19T02:43:52;9.57;;;8.18;;
55684;SDS011;41883;49.544;8.646;2022-08-19T02:46:24;11.75;;;10.23;;
55684;SDS011;41883;49.544;8.646;2022-08-19T02:48:53;10.88;;;9.45;;
55684;SDS011;41883;49.544;8.646;2022-08-19T02:51:23;8.95;;;7.80;;
55684;SDS011;41883;49.544;8.646;2022-08-19T02:53:50;8.52;;;7.10;;
55684;SDS011;41883;49.544;8.646;2022-08-19T02:56:16;8.70;;;7.07;;
55684;SDS011;41883;49.544;8.646;2022-08-19T02:58:42;7.95;;;6.88;;
55684;SDS011;41883;49.544;8.646;2022-08-19T03:01:08;9.45;;;7.70;;
55684;SDS011;41883;49.544;8.646;2022-08-19T03:03:35;11.45;;;9.50;;
55684;SDS011;41883;49.544;8.646;2022-08-19T03:06:05;11.48;;;9.60;;
55684;SDS011;41883;49.544;8.646;2022-08-19T03:08:35;11.00;;;9.05;;
55684;SDS011;41883;49.544;8.646;2022-08-19T03:11:02;11.00;;;9.55;;
55684;SDS011;41883;49.544;8.646;2022-08-19T03:13:28;13.10;;;10.52;;
55684;SDS011;41883;49.544;8.646;2022-08-19T03:15:54;11.77;;;10.35;;
55684;SDS011;41883;49.544;8.646;2022-08-19T03:18:19;13.18;;;10.90;;
55684;SDS011;41883;49.544;8.646;2022-08-19T03:20:45;13.90;;;10.57;;
55684;SDS011;41883;49.544;8.646;2022-08-19T03:23:13;12.48;;;10.55;;
55684;SDS011;41883;49.544;8.646;2022-08-19T03:25:40;12.05;;;10.50;;
55684;SDS011;41883;49.544;8.646;2022-08-19T03:28:11;12.18;;;10.07;;
55684;SDS011;41883;49.544;8.646;2022-08-19T03:30:38;13.02;;;10.75;;
55684;SDS011;41883;49.544;8.646;2022-08-19T03:33:05;12.40;;;9.45;;
55684;SDS011;41883;49.544;8.646;2022-08-19T03:35:31;14.82;;;12.20;;
55684;SDS011;41883;49.544;8.646;2022-08-19T03:37:58;14.15;;;11.40;;
55684;SDS011;41883;49.544;8.646;2022-08-19T03:40:24;13.07;;;10.73;;
55684;SDS011;41883;49.544;8.646;2022-08-19T03:42:50;13.32;;;10.02;;
55684;SDS011;41883;49.544;8.646;2022-08-19T03:45:15;11.52;;;9.57;;
55684;SDS011;41883;49.544;8.646;2022-08-19T03:47:42;16.40;;;11.90;;
55684;SDS011;41883;49.544;8.646;2022-08-19T03:50:07;13.85;;;12.07;;
55684;SDS011;41883;49.544;8.646;2022-08-19T03:52:34;15.63;;;13.93;;
55684;SDS011;41883;49.544;8.646;2022-08-19T03:55:00;13.57;;;11.35;;
55684;SDS011;41883;49.544;8.646;2022-08-19T03:57:26;12.77;;;10.77;;
55684;SDS011;41883;49.544;8.646;2022-08-19T03:59:51;12.65;;;10.30;;
55684;SDS011;41883;49.544;8.646;2022-08-19T04:02:17;12.82;;;10.40;;
55684;SDS011;41883;49.544;8.646;2022-08-19T04:04:42;12.65;;;10.63;;
55684;SDS011;41883;49.544;8.646;2022-08-19T04:07:08;10.85;;;9.60;;
55684;SDS011;41883;49.544;8.646;2022-08-19T04:09:34;14.57;;;11.82;;
55684;SDS011;41883;49.544;8.646;2022-08-19T04:12:01;14.00;;;12.05;;
55684;SDS011;41883;49.544;8.646;2022-08-19T04:14:28;12.70;;;10.77;;
55684;SDS011;41883;49.544;8.646;2022-08-19T04:16:58;11.43;;;10.10;;
55684;SDS011;41883;49.544;8.646;2022-08-19T04:19:24;9.55;;;8.32;;
55684;SDS011;41883;49.544;8.646;2022-08-19T04:21:51;9.35;;;7.97;;
55684;SDS011;41883;49.544;8.646;2022-08-19T04:24:18;15.98;;;10.23;;
55684;SDS011;41883;49.544;8.646;2022-08-19T04:26:43;12.82;;;10.57;;
55684;SDS011;41883;49.544;8.646;2022-08-19T04:29:17;13.88;;;12.10;;
55684;SDS011;41883;49.544;8.646;2022-08-19T04:31:47;12.50;;;10.90;;
55684;SDS011;41883;49.544;8.646;2022-08-19T04:34:16;17.25;;;12.25;;
55684;SDS011;41883;49.544;8.646;2022-08-19T04:36:43;15.07;;;12.40;;
55684;SDS011;41883;49.544;8.646;2022-08-19T04:39:19;15.10;;;11.00;;
55684;SDS011;41883;49.544;8.646;2022-08-19T04:41:48;13.38;;;11.48;;
55684;SDS011;41883;49.544;8.646;2022-08-19T04:44:32;15.80;;;12.98;;
55684;SDS011;41883;49.544;8.646;2022-08-19T04:46:59;14.77;;;11.98;;
55684;SDS011;41883;49.544;8.646;2022-08-19T04:49:25;11.75;;;10.45;;
55684;SDS011;41883;49.544;8.646;2022-08-19T04:51:51;15.25;;;12.32;;
55684;SDS011;41883;49.544;8.646;2022-08-19T04:54:19;17.67;;;11.35;;
55684;SDS011;41883;49.544;8.646;2022-08-19T04:56:47;16.45;;;13.43;;
55684;SDS011;41883;49.544;8.646;2022-08-19T04:59:14;17.95;;;14.70;;
55684;SDS011;41883;49.544;8.646;2022-08-19T05:01:42;18.15;;;14.50;;
55684;SDS011;41883;49.544;8.646;2022-08-19T05:04:08;14.73;;;12.50;;
55684;SDS011;41883;49.544;8.646;2022-08-19T05:06:34;14.85;;;11.85;;
55684;SDS011;41883;49.544;8.646;2022-08-19T05:09:01;11.88;;;10.15;;
55684;SDS011;41883;49.544;8.646;2022-08-19T05:11:31;11.27;;;9.63;;
55684;SDS011;41883;49.544;8.646;2022-08-19T05:13:58;15.52;;;12.10;;
55684;SDS011;41883;49.544;8.646;2022-08-19T05:16:25;13.85;;;11.50;;
55684;SDS011;41883;49.544;8.646;2022-08-19T05:18:51;12.90;;;9.25;;
55684;SDS011;41883;49.544;8.646;2022-08-19T05:21:35;10.90;;;8.80;;
55684;SDS011;41883;49.544;8.646;2022-08-19T05:24:20;8.98;;;7.70;;
55684;SDS011;41883;49.544;8.646;2022-08-19T05:26:47;10.20;;;8.77;;
55684;SDS011;41883;49.544;8.646;2022-08-19T05:29:15;12.02;;;10.20;;
55684;SDS011;41883;49.544;8.646;2022-08-19T05:31:43;13.63;;;11.45;;
55684;SDS011;41883;49.544;8.646;2022-08-19T05:34:09;12.98;;;11.18;;
55684;SDS011;41883;49.544;8.646;2022-08-19T05:36:39;13.63;;;11.00;;
55684;SDS011;41883;49.544;8.646;2022-08-19T05:39:07;14.82;;;11.23;;
55684;SDS011;41883;49.544;8.646;2022-08-19T05:41:33;14.43;;;11.45;;
55684;SDS011;41883;49.544;8.646;2022-08-19T05:44:03;13.02;;;10.05;;
55684;SDS011;41883;49.544;8.646;2022-08-19T05:46:31;15.23;;;12.13;;
55684;SDS011;41883;49.544;8.646;2022-08-19T05:48:57;14.20;;;11.85;;
55684;SDS011;41883;49.544;8.646;2022-08-19T05:51:23;13.45;;;11.40;;
55684;SDS011;41883;49.544;8.646;2022-08-19T05:53:49;15.10;;;12.35;;
55684;SDS011;41883;49.544;8.646;2022-08-19T05:56:15;12.70;;;11.02;;
55684;SDS011;41883;49.544;8.646;2022-08-19T05:58:42;13.98;;;11.60;;
55684;SDS011;41883;49.544;8.646;2022-08-19T06:01:10;16.73;;;13.40;;
55684;SDS011;41883;49.544;8.646;2022-08-19T06:03:38;14.05;;;11.82;;
55684;SDS011;41883;49.544;8.646;2022-08-19T06:06:04;15.38;;;12.77;;
55684;SDS011;41883;49.544;8.646;2022-08-19T06:08:31;16.40;;;13.38;;
55684;SDS011;41883;49.544;8.646;2022-08-19T06:10:57;14.85;;;12.27;;
55684;SDS011;41883;49.544;8.646;2022-08-19T06:13:23;15.77;;;13.52;;
55684;SDS011;41883;49.544;8.646;2022-08-19T06:15:48;13.40;;;11.15;;
55684;SDS011;41883;49.544;8.646;2022-08-19T06:18:14;11.50;;;10.23;;
55684;SDS011;41883;49.544;8.646;2022-08-19T06:20:41;10.90;;;9.52;;
55684;SDS011;41883;49.544;8.646;2022-08-19T06:23:07;11.77;;;10.05;;
55684;SDS011;41883;49.544;8.646;2022-08-19T06:25:33;15.20;;;13.13;;
55684;SDS011;41883;49.544;8.646;2022-08-19T06:27:58;11.77;;;10.02;;
55684;SDS011;41883;49.544;8.646;2022-08-19T06:30:23;12.15;;;10.52;;
55684;SDS011;41883;49.544;8.646;2022-08-19T06:32:49;10.65;;;8.88;;
55684;SDS011;41883;49.544;8.646;2022-08-19T06:35:14;9.65;;;8.52;;
55684;SDS011;41883;49.544;8.646;2022-08-19T06:37:40;11.20;;;9.70;;
55684;SDS011;41883;49.544;8.646;2022-08-19T06:40:06;11.77;;;9.05;;
55684;SDS011;41883;49.544;8.646;2022-08-19T06:42:33;8.95;;;8.05;;
55684;SDS011;41883;49.544;8.646;2022-08-19T06:44:59;13.50;;;10.98;;
55684;SDS011;41883;49.544;8.646;2022-08-19T06:47:28;12.07;;;10.18;;
55684;SDS011;41883;49.544;8.646;2022-08-19T06:49:57;10.77;;;9.20;;
55684;SDS011;41883;49.544;8.646;2022-08-19T06:52:33;14.52;;;11.75;;
55684;SDS011;41883;49.544;8.646;2022-08-19T06:54:59;17.77;;;14.63;;
55684;SDS011;41883;49.544;8.646;2022-08-19T06:57:26;14.45;;;11.25;;
55684;SDS011;41883;49.544;8.646;2022-08-19T06:59:52;13.50;;;11.43;;
55684;SDS011;41883;49.544;8.646;2022-08-19T07:02:17;18.33;;;14.55;;
55684;SDS011;41883;49.544;8.646;2022-08-19T07:04:43;14.63;;;12.77;;
55684;SDS011;41883;49.544;8.646;2022-08-19T07:07:11;15.27;;;12.40;;
55684;SDS011;41883;49.544;8.646;2022-08-19T07:09:39;14.05;;;12.18;;
55684;SDS011;41883;49.544;8.646;2022-08-19T07:12:09;13.18;;;11.32;;
55684;SDS011;41883;49.544;8.646;2022-08-19T07:14:36;14.90;;;12.20;;
55684;SDS011;41883;49.544;8.646;2022-08-19T07:17:03;15.60;;;13.50;;
55684;SDS011;41883;49.544;8.646;2022-08-19T07:19:32;13.73;;;11.45;;
55684;SDS011;41883;49.544;8.646;2022-08-19T07:21:58;13.93;;;12.25;;
55684;SDS011;41883;49.544;8.646;2022-08-19T07:24:27;18.25;;;12.82;;
55684;SDS011;41883;49.544;8.646;2022-08-19T07:26:54;13.82;;;10.75;;
55684;SDS011;41883;49.544;8.646;2022-08-19T07:29:22;13.88;;;11.85;;
55684;SDS011;41883;49.544;8.646;2022-08-19T07:31:49;12.75;;;10.52;;
55684;SDS011;41883;49.544;8.646;2022-08-19T07:34:16;11.35;;;9.70;;
55684;SDS011;41883;49.544;8.646;2022-08-19T07:36:41;10.20;;;8.65;;
55684;SDS011;41883;49.544;8.646;2022-08-19T07:39:09;10.80;;;9.63;;
55684;SDS011;41883;49.544;8.646;2022-08-19T07:41:37;11.50;;;10.15;;
55684;SDS011;41883;49.544;8.646;2022-08-19T07:44:03;13.48;;;10.68;;
55684;SDS011;41883;49.544;8.646;2022-08-19T07:46:30;11.57;;;9.95;;
55684;SDS011;41883;49.544;8.646;2022-08-19T07:48:57;12.30;;;10.55;;
55684;SDS011;41883;49.544;8.646;2022-08-19T07:51:22;14.30;;;11.55;;
55684;SDS011;41883;49.544;8.646;2022-08-19T07:53:48;13.40;;;10.80;;
55684;SDS011;41883;49.544;8.646;2022-08-19T07:56:15;12.13;;;10.23;;
55684;SDS011;41883;49.544;8.646;2022-08-19T07:58:42;11.80;;;10.57;;
55684;SDS011;41883;49.544;8.646;2022-08-19T08:01:10;11.32;;;9.23;;
55684;SDS011;41883;49.544;8.646;2022-08-19T08:03:37;10.63;;;9.23;;
55684;SDS011;41883;49.544;8.646;2022-08-19T08:06:21;11.15;;;8.98;;
55684;SDS011;41883;49.544;8.646;2022-08-19T08:09:08;10.77;;;9.27;;
55684;SDS011;41883;49.544;8.646;2022-08-19T08:11:45;13.10;;;11.45;;
55684;SDS011;41883;49.544;8.646;2022-08-19T08:14:15;9.18;;;8.18;;
55684;SDS011;41883;49.544;8.646;2022-08-19T08:16:47;10.18;;;8.23;;
55684;SDS011;41883;49.544;8.646;2022-08-19T08:19:16;11.77;;;9.13;;
55684;SDS011;41883;49.544;8.646;2022-08-19T08:21:43;10.10;;;8.18;;
55684;SDS011;41883;49.544;8.646;2022-08-19T08:24:08;8.38;;;7.40;;
55684;SDS011;41883;49.544;8.646;2022-08-19T08:26:34;10.85;;;8.35;;
55684;SDS011;41883;49.544;8.646;2022-08-19T08:28:59;9.60;;;7.97;;
55684;SDS011;41883;49.544;8.646;2022-08-19T08:31:24;9.15;;;7.60;;
55684;SDS011;41883;49.544;8.646;2022-08-19T08:33:50;7.63;;;6.57;;
55684;SDS011;41883;49.544;8.646;2022-08-19T08:36:15;8.32;;;6.50;;
55684;SDS011;41883;49.544;8.646;2022-08-19T08:38:42;8.15;;;6.30;;
55684;SDS011;41883;49.544;8.646;2022-08-19T08:43:59;7.00;;;6.30;;
55684;SDS011;41883;49.544;8.646;2022-08-19T08:51:46;5.97;;;5.13;;
55684;SDS011;41883;49.544;8.646;2022-08-19T08:54:17;6.15;;;4.20;;
55684;SDS011;41883;49.544;8.646;2022-08-19T08:56:45;5.35;;;4.47;;
55684;SDS011;41883;49.544;8.646;2022-08-19T08:59:25;6.15;;;4.10;;
55684;SDS011;41883;49.544;8.646;2022-08-19T09:01:57;4.85;;;4.28;;
55684;SDS011;41883;49.544;8.646;2022-08-19T09:04:22;6.40;;;3.92;;
55684;SDS011;41883;49.544;8.646;2022-08-19T09:06:53;4.80;;;4.25;;
55684;SDS011;41883;49.544;8.646;2022-08-19T09:09:30;5.30;;;3.65;;
55684;SDS011;41883;49.544;8.646;2022-08-19T09:14:49;4.93;;;4.05;;
55684;SDS011;41883;49.544;8.646;2022-08-19T09:17:15;6.20;;;4.57;;
55684;SDS011;41883;49.544;8.646;2022-08-19T09:19:52;5.20;;;3.90;;
55684;SDS011;41883;49.544;8.646;2022-08-19T09:22:17;4.93;;;3.63;;
55684;SDS011;41883;49.544;8.646;2022-08-19T09:24:46;4.60;;;3.92;;
55684;SDS011;41883;49.544;8.646;2022-08-19T09:27:11;5.20;;;4.10;;
55684;SDS011;41883;49.544;8.646;2022-08-19T09:29:36;6.05;;;4.20;;
55684;SDS011;41883;49.544;8.646;2022-08-19T09:32:02;4.93;;;4.10;;
55684;SDS011;41883;49.544;8.646;2022-08-19T09:34:27;5.00;;;3.42;;
55684;SDS011;41883;49.544;8.646;2022-08-19T09:36:54;5.00;;;3.90;;
55684;SDS011;41883;49.544;8.646;2022-08-19T09:39:23;3.95;;;2.97;;
55684;SDS011;41883;49.544;8.646;2022-08-19T09:41:48;4.68;;;3.40;;
55684;SDS011;41883;49.544;8.646;2022-08-19T09:44:15;3.47;;;3.05;;
55684;SDS011;41883;49.544;8.646;2022-08-19T09:46:40;4.38;;;2.63;;
55684;SDS011;41883;49.544;8.646;2022-08-19T09:49:06;4.03;;;3.22;;
55684;SDS011;41883;49.544;8.646;2022-08-19T09:51:31;3.55;;;2.67;;
55684;SDS011;41883;49.544;8.646;2022-08-19T09:54:01;3.55;;;2.92;;
55684;SDS011;41883;49.544;8.646;2022-08-19T09:56:28;3.70;;;2.80;;
55684;SDS011;41883;49.544;8.646;2022-08-19T09:58:55;3.53;;;2.80;;
55684;SDS011;41883;49.544;8.646;2022-08-19T10:01:23;3.10;;;2.50;;
55684;SDS011;41883;49.544;8.646;2022-08-19T10:03:50;3.60;;;2.90;;
55684;SDS011;41883;49.544;8.646;2022-08-19T10:06:20;7.30;;;3.10;;
55684;SDS011;41883;49.544;8.646;2022-08-19T10:08:47;3.60;;;2.78;;
55684;SDS011;41883;49.544;8.646;2022-08-19T10:11:13;2.92;;;2.63;;
55684;SDS011;41883;49.544;8.646;2022-08-19T10:13:41;2.75;;;1.98;;
55684;SDS011;41883;49.544;8.646;2022-08-19T10:16:08;3.35;;;2.40;;
55684;SDS011;41883;49.544;8.646;2022-08-19T10:18:36;3.85;;;2.70;;
55684;SDS011;41883;49.544;8.646;2022-08-19T10:21:07;4.60;;;2.88;;
55684;SDS011;41883;49.544;8.646;2022-08-19T10:23:44;3.15;;;2.47;;
55684;SDS011;41883;49.544;8.646;2022-08-19T10:26:11;2.92;;;2.55;;
55684;SDS011;41883;49.544;8.646;2022-08-19T10:28:38;2.97;;;2.60;;
55684;SDS011;41883;49.544;8.646;2022-08-19T10:31:37;3.83;;;2.53;;
55684;SDS011;41883;49.544;8.646;2022-08-19T10:33:57;2.50;;;2.10;;
55684;SDS011;41883;49.544;8.646;2022-08-19T10:36:24;4.88;;;2.72;;
55684;SDS011;41883;49.544;8.646;2022-08-19T10:38:52;2.70;;;2.40;;
55684;SDS011;41883;49.544;8.646;2022-08-19T10:41:22;3.00;;;2.70;;
55684;SDS011;41883;49.544;8.646;2022-08-19T10:43:51;4.05;;;3.20;;
55684;SDS011;41883;49.544;8.646;2022-08-19T10:46:22;3.50;;;2.85;;
55684;SDS011;41883;49.544;8.646;2022-08-19T10:48:49;4.07;;;3.10;;
55684;SDS011;41883;49.544;8.646;2022-08-19T10:51:15;3.92;;;3.10;;
55684;SDS011;41883;49.544;8.646;2022-08-19T10:53:59;3.45;;;2.60;;
55684;SDS011;41883;49.544;8.646;2022-08-19T10:56:26;3.85;;;2.50;;
55684;SDS011;41883;49.544;8.646;2022-08-19T10:59:10;4.18;;;2.95;;
55684;SDS011;41883;49.544;8.646;2022-08-19T11:01:38;4.32;;;2.80;;
55684;SDS011;41883;49.544;8.646;2022-08-19T11:04:05;3.78;;;2.80;;
55684;SDS011;41883;49.544;8.646;2022-08-19T11:06:34;4.50;;;3.05;;
55684;SDS011;41883;49.544;8.646;2022-08-19T11:09:00;4.43;;;3.22;;
55684;SDS011;41883;49.544;8.646;2022-08-19T11:11:26;3.53;;;3.17;;
55684;SDS011;41883;49.544;8.646;2022-08-19T11:13:51;3.97;;;3.00;;
55684;SDS011;41883;49.544;8.646;2022-08-19T11:16:19;5.20;;;3.88;;
55684;SDS011;41883;49.544;8.646;2022-08-19T11:18:54;4.70;;;3.72;;
55684;SDS011;41883;49.544;8.646;2022-08-19T11:21:24;4.72;;;3.90;;
55684;SDS011;41883;49.544;8.646;2022-08-19T11:23:53;4.63;;;3.75;;
55684;SDS011;41883;49.544;8.646;2022-08-19T11:26:21;4.53;;;3.65;;
55684;SDS011;41883;49.544;8.646;2022-08-19T11:28:47;5.15;;;4.00;;
55684;SDS011;41883;49.544;8.646;2022-08-19T11:31:14;5.07;;;3.67;;
55684;SDS011;41883;49.544;8.646;2022-08-19T11:33:43;4.50;;;4.03;;
55684;SDS011;41883;49.544;8.646;2022-08-19T11:36:09;4.10;;;3.70;;
55684;SDS011;41883;49.544;8.646;2022-08-19T11:38:35;5.25;;;3.65;;
55684;SDS011;41883;49.544;8.646;2022-08-19T11:41:02;5.43;;;4.00;;
55684;SDS011;41883;49.544;8.646;2022-08-19T11:43:29;4.38;;;3.97;;
55684;SDS011;41883;49.544;8.646;2022-08-19T11:45:56;4.95;;;4.35;;
55684;SDS011;41883;49.544;8.646;2022-08-19T11:48:22;4.65;;;3.40;;
55684;SDS011;41883;49.544;8.646;2022-08-19T11:50:52;4.57;;;3.90;;
55684;SDS011;41883;49.544;8.646;2022-08-19T11:53:22;5.32;;;3.78;;
55684;SDS011;41883;49.544;8.646;2022-08-19T11:55:48;4.53;;;4.07;;
55684;SDS011;41883;49.544;8.646;2022-08-19T11:58:14;4.80;;;4.28;;
55684;SDS011;41883;49.544;8.646;2022-08-19T12:00:41;5.05;;;4.15;;
55684;SDS011;41883;49.544;8.646;2022-08-19T12:03:09;3.92;;;3.53;;
55684;SDS011;41883;49.544;8.646;2022-08-19T12:05:36;4.20;;;3.80;;
55684;SDS011;41883;49.544;8.646;2022-08-19T12:08:02;5.20;;;3.80;;
55684;SDS011;41883;49.544;8.646;2022-08-19T12:10:28;4.68;;;4.15;;
55684;SDS011;41883;49.544;8.646;2022-08-19T12:12:53;5.47;;;4.97;;
55684;SDS011;41883;49.544;8.646;2022-08-19T12:15:19;5.80;;;4.50;;
55684;SDS011;41883;49.544;8.646;2022-08-19T12:17:44;5.45;;;4.72;;
55684;SDS011;41883;49.544;8.646;2022-08-19T12:20:10;4.88;;;4.38;;
55684;SDS011;41883;49.544;8.646;2022-08-19T12:22:37;5.43;;;4.40;;
55684;SDS011;41883;49.544;8.646;2022-08-19T12:25:04;4.22;;;3.70;;
55684;SDS011;41883;49.544;8.646;2022-08-19T12:27:30;5.47;;;4.10;;
55684;SDS011;41883;49.544;8.646;2022-08-19T12:29:56;4.57;;;3.70;;
55684;SDS011;41883;49.544;8.646;2022-08-19T12:32:22;4.53;;;3.88;;
55684;SDS011;41883;49.544;8.646;2022-08-19T12:34:49;4.43;;;3.95;;
55684;SDS011;41883;49.544;8.646;2022-08-19T12:37:14;4.88;;;4.00;;
55684;SDS011;41883;49.544;8.646;2022-08-19T12:39:42;4.57;;;4.10;;
55684;SDS011;41883;49.544;8.646;2022-08-19T12:42:08;5.20;;;4.47;;
55684;SDS011;41883;49.544;8.646;2022-08-19T12:44:35;4.40;;;4.00;;
55684;SDS011;41883;49.544;8.646;2022-08-19T12:47:02;5.35;;;4.28;;
55684;SDS011;41883;49.544;8.646;2022-08-19T12:49:29;4.63;;;4.00;;
55684;SDS011;41883;49.544;8.646;2022-08-19T12:51:56;4.97;;;3.88;;
55684;SDS011;41883;49.544;8.646;2022-08-19T12:54:22;4.60;;;4.00;;
55684;SDS011;41883;49.544;8.646;2022-08-19T12:56:48;4.25;;;3.85;;
55684;SDS011;41883;49.544;8.646;2022-08-19T12:59:13;4.97;;;4.07;;
55684;SDS011;41883;49.544;8.646;2022-08-19T13:01:40;4.20;;;3.80;;
55684;SDS011;41883;49.544;8.646;2022-08-19T13:04:06;5.22;;;3.90;;
55684;SDS011;41883;49.544;8.646;2022-08-19T13:06:32;4.60;;;4.20;;
55684;SDS011;41883;49.544;8.646;2022-08-19T13:08:57;5.25;;;4.75;;
55684;SDS011;41883;49.544;8.646;2022-08-19T13:11:23;5.13;;;4.28;;
55684;SDS011;41883;49.544;8.646;2022-08-19T13:13:49;4.40;;;4.00;;
55684;SDS011;41883;49.544;8.646;2022-08-19T13:16:17;4.28;;;3.88;;
55684;SDS011;41883;49.544;8.646;2022-08-19T13:18:45;4.45;;;3.60;;
55684;SDS011;41883;49.544;8.646;2022-08-19T13:21:18;6.22;;;4.32;;
55684;SDS011;41883;49.544;8.646;2022-08-19T13:23:45;4.30;;;3.90;;
55684;SDS011;41883;49.544;8.646;2022-08-19T13:26:11;4.05;;;3.65;;
55684;SDS011;41883;49.544;8.646;2022-08-19T13:28:38;4.40;;;4.00;;
55684;SDS011;41883;49.544;8.646;2022-08-19T13:31:23;4.00;;;3.60;;
55684;SDS011;41883;49.544;8.646;2022-08-19T13:34:09;7.05;;;4.22;;
55684;SDS011;41883;49.544;8.646;2022-08-19T13:36:34;4.65;;;4.05;;
55684;SDS011;41883;49.544;8.646;2022-08-19T13:39:01;4.20;;;3.80;;
55684;SDS011;41883;49.544;8.646;2022-08-19T13:41:26;4.40;;;3.95;;
55684;SDS011;41883;49.544;8.646;2022-08-19T13:43:52;4.40;;;4.00;;
55684;SDS011;41883;49.544;8.646;2022-08-19T13:46:19;4.30;;;3.90;;
55684;SDS011;41883;49.544;8.646;2022-08-19T13:48:45;4.03;;;3.53;;
55684;SDS011;41883;49.544;8.646;2022-08-19T13:51:11;5.40;;;3.90;;
55684;SDS011;41883;49.544;8.646;2022-08-19T13:53:37;3.70;;;3.40;;
55684;SDS011;41883;49.544;8.646;2022-08-19T13:56:12;5.95;;;3.80;;
55684;SDS011;41883;49.544;8.646;2022-08-19T13:58:39;4.15;;;3.75;;
55684;SDS011;41883;49.544;8.646;2022-08-19T14:01:05;4.57;;;3.70;;
55684;SDS011;41883;49.544;8.646;2022-08-19T14:03:31;3.97;;;3.58;;
55684;SDS011;41883;49.544;8.646;2022-08-19T14:05:57;4.40;;;3.67;;
55684;SDS011;41883;49.544;8.646;2022-08-19T14:08:23;4.07;;;3.65;;
55684;SDS011;41883;49.544;8.646;2022-08-19T14:10:50;4.35;;;3.70;;
55684;SDS011;41883;49.544;8.646;2022-08-19T14:13:16;4.80;;;3.97;;
55684;SDS011;41883;49.544;8.646;2022-08-19T14:15:44;4.93;;;4.28;;
55684;SDS011;41883;49.544;8.646;2022-08-19T14:18:10;4.63;;;4.13;;
55684;SDS011;41883;49.544;8.646;2022-08-19T14:20:36;4.32;;;3.92;;
55684;SDS011;41883;49.544;8.646;2022-08-19T14:23:01;4.80;;;3.92;;
55684;SDS011;41883;49.544;8.646;2022-08-19T14:25:28;5.43;;;3.80;;
55684;SDS011;41883;49.544;8.646;2022-08-19T14:27:55;4.25;;;3.85;;
55684;SDS011;41883;49.544;8.646;2022-08-19T14:30:22;4.10;;;3.65;;
55684;SDS011;41883;49.544;8.646;2022-08-19T14:32:56;5.47;;;3.50;;
55684;SDS011;41883;49.544;8.646;2022-08-19T14:35:23;4.47;;;4.03;;
55684;SDS011;41883;49.544;8.646;2022-08-19T14:37:50;3.80;;;3.33;;
55684;SDS011;41883;49.544;8.646;2022-08-19T14:40:20;4.65;;;3.60;;
55684;SDS011;41883;49.544;8.646;2022-08-19T14:42:50;4.18;;;3.67;;
55684;SDS011;41883;49.544;8.646;2022-08-19T14:45:17;3.60;;;3.30;;
55684;SDS011;41883;49.544;8.646;2022-08-19T14:47:43;4.50;;;3.13;;
55684;SDS011;41883;49.544;8.646;2022-08-19T14:50:09;3.40;;;3.08;;
55684;SDS011;41883;49.544;8.646;2022-08-19T14:52:35;3.63;;;2.97;;